sensor_id;sensor_type;location;lat;lon;timestamp;P1;durP1;ratioP1;P2;durP2;ratioP2
2289;SDS011;1153;47.986;7.898;2022-12-31T00:01:09;0.83;;;0.30;;
2289;SDS011;1153;47.986;7.898;2022-12-31T00:03:35;0.50;;;0.20;;
2289;SDS011;1153;47.986;7.898;2022-12-31T00:06:00;0.50;;;0.23;;
2289;SDS011;1153;47.986;7.898;2022-12-31T00:08:25;1.57;;;0.20;;
2289;SDS011;1153;47.986;7.898;2022-12-31T00:10:51;0.60;;;0.30;;
2289;SDS011;1153;47.986;7.898;2022-12-31T00:13:16;0.40;;;0.20;;
2289;SDS011;1153;47.986;7.898;2022-12-31T00:15:41;0.50;;;0.20;;
2289;SDS011;1153;47.986;7.898;2022-12-31T00:18:07;0.40;;;0.20;;
2289;SDS011;1153;47.986;7.898;2022-12-31T00:20:33;0.40;;;0.20;;
2289;SDS011;1153;47.986;7.898;2022-12-31T00:22:58;0.97;;;0.20;;
2289;SDS011;1153;47.986;7.898;2022-12-31T00:25:23;0.60;;;0.20;;
2289;SDS011;1153;47.986;7.898;2022-12-31T00:27:48;0.70;;;0.30;;
2289;SDS011;1153;47.986;7.898;2022-12-31T00:30:14;0.60;;;0.20;;
2289;SDS011;1153;47.986;7.898;2022-12-31T00:32:39;0.50;;;0.20;;
2289;SDS011;1153;47.986;7.898;2022-12-31T00:35:04;0.40;;;0.20;;
2289;SDS011;1153;47.986;7.898;2022-12-31T00:37:30;0.50;;;0.20;;
2289;SDS011;1153;47.986;7.898;2022-12-31T00:39:55;0.50;;;0.27;;
2289;SDS011;1153;47.986;7.898;2022-12-31T00:42:20;0.40;;;0.20;;
2289;SDS011;1153;47.986;7.898;2022-12-31T00:44:45;0.40;;;0.20;;
2289;SDS011;1153;47.986;7.898;2022-12-31T00:47:11;0.40;;;0.20;;
2289;SDS011;1153;47.986;7.898;2022-12-31T00:49:36;0.57;;;0.20;;
2289;SDS011;1153;47.986;7.898;2022-12-31T00:52:01;0.63;;;0.30;;
2289;SDS011;1153;47.986;7.898;2022-12-31T00:54:26;0.50;;;0.27;;
2289;SDS011;1153;47.986;7.898;2022-12-31T00:56:51;0.47;;;0.20;;
2289;SDS011;1153;47.986;7.898;2022-12-31T00:59:17;1.17;;;0.20;;
2289;SDS011;1153;47.986;7.898;2022-12-31T01:01:42;0.40;;;0.20;;
2289;SDS011;1153;47.986;7.898;2022-12-31T01:04:17;0.50;;;0.20;;
2289;SDS011;1153;47.986;7.898;2022-12-31T01:06:43;0.73;;;0.20;;
2289;SDS011;1153;47.986;7.898;2022-12-31T01:09:09;0.93;;;0.20;;
2289;SDS011;1153;47.986;7.898;2022-12-31T01:11:34;0.50;;;0.30;;
2289;SDS011;1153;47.986;7.898;2022-12-31T01:14:01;0.90;;;0.20;;
2289;SDS011;1153;47.986;7.898;2022-12-31T01:18:58;0.57;;;0.30;;
2289;SDS011;1153;47.986;7.898;2022-12-31T01:21:23;1.70;;;0.20;;
2289;SDS011;1153;47.986;7.898;2022-12-31T01:23:49;0.50;;;0.20;;
2289;SDS011;1153;47.986;7.898;2022-12-31T01:26:14;0.50;;;0.30;;
2289;SDS011;1153;47.986;7.898;2022-12-31T01:28:40;0.50;;;0.20;;
2289;SDS011;1153;47.986;7.898;2022-12-31T01:31:09;0.40;;;0.20;;
2289;SDS011;1153;47.986;7.898;2022-12-31T01:33:35;0.40;;;0.20;;
2289;SDS011;1153;47.986;7.898;2022-12-31T01:36:04;2.20;;;0.30;;
2289;SDS011;1153;47.986;7.898;2022-12-31T01:38:30;0.60;;;0.20;;
2289;SDS011;1153;47.986;7.898;2022-12-31T01:40:55;0.43;;;0.20;;
2289;SDS011;1153;47.986;7.898;2022-12-31T01:43:20;0.47;;;0.20;;
2289;SDS011;1153;47.986;7.898;2022-12-31T01:45:46;0.40;;;0.20;;
2289;SDS011;1153;47.986;7.898;2022-12-31T01:48:13;0.40;;;0.20;;
2289;SDS011;1153;47.986;7.898;2022-12-31T01:50:39;0.40;;;0.20;;
2289;SDS011;1153;47.986;7.898;2022-12-31T01:53:05;0.50;;;0.23;;
2289;SDS011;1153;47.986;7.898;2022-12-31T01:55:35;0.40;;;0.20;;
2289;SDS011;1153;47.986;7.898;2022-12-31T01:58:09;0.50;;;0.20;;
2289;SDS011;1153;47.986;7.898;2022-12-31T02:00:35;0.53;;;0.23;;
2289;SDS011;1153;47.986;7.898;2022-12-31T02:03:01;0.40;;;0.20;;
2289;SDS011;1153;47.986;7.898;2022-12-31T02:05:35;0.40;;;0.20;;
2289;SDS011;1153;47.986;7.898;2022-12-31T02:08:01;0.60;;;0.30;;
2289;SDS011;1153;47.986;7.898;2022-12-31T02:10:27;4.00;;;0.30;;
2289;SDS011;1153;47.986;7.898;2022-12-31T02:12:52;0.40;;;0.20;;
2289;SDS011;1153;47.986;7.898;2022-12-31T02:15:17;0.50;;;0.20;;
2289;SDS011;1153;47.986;7.898;2022-12-31T02:18:00;0.63;;;0.30;;
2289;SDS011;1153;47.986;7.898;2022-12-31T02:20:34;0.40;;;0.20;;
2289;SDS011;1153;47.986;7.898;2022-12-31T02:31:00;1.33;;;0.30;;
2289;SDS011;1153;47.986;7.898;2022-12-31T02:33:40;0.40;;;0.20;;
2289;SDS011;1153;47.986;7.898;2022-12-31T02:36:27;0.40;;;0.20;;
2289;SDS011;1153;47.986;7.898;2022-12-31T02:38:53;0.40;;;0.20;;
2289;SDS011;1153;47.986;7.898;2022-12-31T02:41:19;0.40;;;0.20;;
2289;SDS011;1153;47.986;7.898;2022-12-31T02:52:02;0.40;;;0.20;;
2289;SDS011;1153;47.986;7.898;2022-12-31T02:54:35;0.50;;;0.20;;
2289;SDS011;1153;47.986;7.898;2022-12-31T02:57:12;1.23;;;0.20;;
2289;SDS011;1153;47.986;7.898;2022-12-31T03:02:37;0.50;;;0.20;;
2289;SDS011;1153;47.986;7.898;2022-12-31T03:05:03;0.40;;;0.20;;
2289;SDS011;1153;47.986;7.898;2022-12-31T03:07:29;0.40;;;0.20;;
2289;SDS011;1153;47.986;7.898;2022-12-31T03:09:55;2.63;;;0.20;;
2289;SDS011;1153;47.986;7.898;2022-12-31T03:12:21;0.40;;;0.20;;
2289;SDS011;1153;47.986;7.898;2022-12-31T03:15:08;0.60;;;0.20;;
2289;SDS011;1153;47.986;7.898;2022-12-31T03:17:44;0.40;;;0.20;;
2289;SDS011;1153;47.986;7.898;2022-12-31T03:20:10;2.10;;;0.20;;
2289;SDS011;1153;47.986;7.898;2022-12-31T03:22:54;0.47;;;0.20;;
2289;SDS011;1153;47.986;7.898;2022-12-31T03:25:20;0.50;;;0.20;;
2289;SDS011;1153;47.986;7.898;2022-12-31T03:28:02;1.90;;;0.20;;
2289;SDS011;1153;47.986;7.898;2022-12-31T03:30:28;0.50;;;0.20;;
2289;SDS011;1153;47.986;7.898;2022-12-31T03:32:54;0.63;;;0.30;;
2289;SDS011;1153;47.986;7.898;2022-12-31T03:35:24;0.50;;;0.20;;
2289;SDS011;1153;47.986;7.898;2022-12-31T03:37:49;0.40;;;0.20;;
2289;SDS011;1153;47.986;7.898;2022-12-31T03:40:15;0.50;;;0.27;;
2289;SDS011;1153;47.986;7.898;2022-12-31T03:42:40;0.50;;;0.20;;
2289;SDS011;1153;47.986;7.898;2022-12-31T03:45:06;0.40;;;0.20;;
2289;SDS011;1153;47.986;7.898;2022-12-31T03:47:31;0.50;;;0.30;;
2289;SDS011;1153;47.986;7.898;2022-12-31T03:49:56;0.40;;;0.20;;
2289;SDS011;1153;47.986;7.898;2022-12-31T03:52:22;0.50;;;0.20;;
2289;SDS011;1153;47.986;7.898;2022-12-31T03:54:47;0.40;;;0.20;;
2289;SDS011;1153;47.986;7.898;2022-12-31T03:57:12;3.27;;;0.20;;
2289;SDS011;1153;47.986;7.898;2022-12-31T03:59:37;0.47;;;0.20;;
2289;SDS011;1153;47.986;7.898;2022-12-31T04:02:03;0.50;;;0.20;;
2289;SDS011;1153;47.986;7.898;2022-12-31T04:04:28;0.50;;;0.20;;
2289;SDS011;1153;47.986;7.898;2022-12-31T04:06:53;0.50;;;0.20;;
2289;SDS011;1153;47.986;7.898;2022-12-31T04:09:18;0.50;;;0.30;;
2289;SDS011;1153;47.986;7.898;2022-12-31T04:11:44;0.57;;;0.20;;
2289;SDS011;1153;47.986;7.898;2022-12-31T04:14:09;0.40;;;0.20;;
2289;SDS011;1153;47.986;7.898;2022-12-31T04:16:35;0.40;;;0.20;;
2289;SDS011;1153;47.986;7.898;2022-12-31T04:19:00;0.40;;;0.20;;
2289;SDS011;1153;47.986;7.898;2022-12-31T04:21:26;0.40;;;0.20;;
2289;SDS011;1153;47.986;7.898;2022-12-31T04:23:51;0.43;;;0.20;;
2289;SDS011;1153;47.986;7.898;2022-12-31T04:26:16;0.43;;;0.20;;
2289;SDS011;1153;47.986;7.898;2022-12-31T04:28:41;0.50;;;0.20;;
2289;SDS011;1153;47.986;7.898;2022-12-31T04:31:06;0.50;;;0.20;;
2289;SDS011;1153;47.986;7.898;2022-12-31T04:33:31;0.40;;;0.20;;
2289;SDS011;1153;47.986;7.898;2022-12-31T04:36:00;0.40;;;0.20;;
2289;SDS011;1153;47.986;7.898;2022-12-31T04:38:26;0.40;;;0.20;;
2289;SDS011;1153;47.986;7.898;2022-12-31T04:40:53;0.50;;;0.20;;
2289;SDS011;1153;47.986;7.898;2022-12-31T04:43:37;0.40;;;0.20;;
2289;SDS011;1153;47.986;7.898;2022-12-31T04:46:02;0.40;;;0.20;;
2289;SDS011;1153;47.986;7.898;2022-12-31T04:48:27;0.50;;;0.20;;
2289;SDS011;1153;47.986;7.898;2022-12-31T04:50:52;0.50;;;0.20;;
2289;SDS011;1153;47.986;7.898;2022-12-31T04:53:18;2.00;;;0.20;;
2289;SDS011;1153;47.986;7.898;2022-12-31T04:55:44;0.40;;;0.20;;
2289;SDS011;1153;47.986;7.898;2022-12-31T04:58:09;0.40;;;0.20;;
2289;SDS011;1153;47.986;7.898;2022-12-31T05:00:34;0.40;;;0.20;;
2289;SDS011;1153;47.986;7.898;2022-12-31T05:02:59;0.47;;;0.20;;
2289;SDS011;1153;47.986;7.898;2022-12-31T05:05:24;0.30;;;0.20;;
2289;SDS011;1153;47.986;7.898;2022-12-31T05:07:50;0.40;;;0.20;;
2289;SDS011;1153;47.986;7.898;2022-12-31T05:10:15;0.57;;;0.30;;
2289;SDS011;1153;47.986;7.898;2022-12-31T05:12:40;0.40;;;0.20;;
2289;SDS011;1153;47.986;7.898;2022-12-31T05:15:05;0.50;;;0.20;;
2289;SDS011;1153;47.986;7.898;2022-12-31T05:17:31;0.40;;;0.20;;
2289;SDS011;1153;47.986;7.898;2022-12-31T05:19:56;0.47;;;0.20;;
2289;SDS011;1153;47.986;7.898;2022-12-31T05:22:21;0.50;;;0.20;;
2289;SDS011;1153;47.986;7.898;2022-12-31T05:24:56;0.47;;;0.23;;
2289;SDS011;1153;47.986;7.898;2022-12-31T05:27:22;0.40;;;0.20;;
2289;SDS011;1153;47.986;7.898;2022-12-31T05:29:47;0.40;;;0.20;;
2289;SDS011;1153;47.986;7.898;2022-12-31T05:32:12;0.50;;;0.20;;
2289;SDS011;1153;47.986;7.898;2022-12-31T05:34:37;0.40;;;0.20;;
2289;SDS011;1153;47.986;7.898;2022-12-31T05:37:02;0.40;;;0.20;;
2289;SDS011;1153;47.986;7.898;2022-12-31T05:39:28;0.40;;;0.20;;
2289;SDS011;1153;47.986;7.898;2022-12-31T05:41:53;0.70;;;0.30;;
2289;SDS011;1153;47.986;7.898;2022-12-31T05:44:19;0.60;;;0.40;;
2289;SDS011;1153;47.986;7.898;2022-12-31T05:46:44;0.50;;;0.23;;
2289;SDS011;1153;47.986;7.898;2022-12-31T05:49:10;0.70;;;0.40;;
2289;SDS011;1153;47.986;7.898;2022-12-31T05:51:36;0.50;;;0.27;;
2289;SDS011;1153;47.986;7.898;2022-12-31T05:54:01;0.40;;;0.20;;
2289;SDS011;1153;47.986;7.898;2022-12-31T05:56:26;0.60;;;0.20;;
2289;SDS011;1153;47.986;7.898;2022-12-31T05:58:51;0.40;;;0.20;;
2289;SDS011;1153;47.986;7.898;2022-12-31T06:01:16;0.57;;;0.27;;
2289;SDS011;1153;47.986;7.898;2022-12-31T06:03:42;1.43;;;0.20;;
2289;SDS011;1153;47.986;7.898;2022-12-31T06:06:07;1.00;;;0.30;;
2289;SDS011;1153;47.986;7.898;2022-12-31T06:08:32;0.40;;;0.20;;
2289;SDS011;1153;47.986;7.898;2022-12-31T06:10:57;0.40;;;0.20;;
2289;SDS011;1153;47.986;7.898;2022-12-31T06:13:22;0.40;;;0.20;;
2289;SDS011;1153;47.986;7.898;2022-12-31T06:15:47;0.40;;;0.20;;
2289;SDS011;1153;47.986;7.898;2022-12-31T06:18:13;1.17;;;0.20;;
2289;SDS011;1153;47.986;7.898;2022-12-31T06:20:38;1.37;;;0.20;;
2289;SDS011;1153;47.986;7.898;2022-12-31T06:23:03;0.50;;;0.20;;
2289;SDS011;1153;47.986;7.898;2022-12-31T06:25:29;0.40;;;0.20;;
2289;SDS011;1153;47.986;7.898;2022-12-31T06:27:54;0.40;;;0.20;;
2289;SDS011;1153;47.986;7.898;2022-12-31T06:30:20;0.40;;;0.20;;
2289;SDS011;1153;47.986;7.898;2022-12-31T06:32:45;0.70;;;0.20;;
2289;SDS011;1153;47.986;7.898;2022-12-31T06:35:10;0.40;;;0.20;;
2289;SDS011;1153;47.986;7.898;2022-12-31T06:37:35;0.40;;;0.20;;
2289;SDS011;1153;47.986;7.898;2022-12-31T06:40:00;0.40;;;0.20;;
2289;SDS011;1153;47.986;7.898;2022-12-31T06:42:29;0.50;;;0.20;;
2289;SDS011;1153;47.986;7.898;2022-12-31T06:44:55;2.60;;;0.20;;
2289;SDS011;1153;47.986;7.898;2022-12-31T06:47:20;0.50;;;0.40;;
2289;SDS011;1153;47.986;7.898;2022-12-31T06:49:46;0.50;;;0.30;;
2289;SDS011;1153;47.986;7.898;2022-12-31T06:52:11;0.40;;;0.20;;
2289;SDS011;1153;47.986;7.898;2022-12-31T06:54:36;1.07;;;0.20;;
2289;SDS011;1153;47.986;7.898;2022-12-31T06:57:01;0.77;;;0.47;;
2289;SDS011;1153;47.986;7.898;2022-12-31T06:59:27;2.30;;;0.20;;
2289;SDS011;1153;47.986;7.898;2022-12-31T07:13:08;2.10;;;0.20;;
2289;SDS011;1153;47.986;7.898;2022-12-31T07:15:39;0.60;;;0.20;;
2289;SDS011;1153;47.986;7.898;2022-12-31T07:18:14;0.40;;;0.20;;
2289;SDS011;1153;47.986;7.898;2022-12-31T07:20:43;0.70;;;0.20;;
2289;SDS011;1153;47.986;7.898;2022-12-31T07:23:08;0.40;;;0.20;;
2289;SDS011;1153;47.986;7.898;2022-12-31T07:25:34;1.17;;;0.27;;
2289;SDS011;1153;47.986;7.898;2022-12-31T07:30:32;0.40;;;0.20;;
2289;SDS011;1153;47.986;7.898;2022-12-31T07:33:02;0.60;;;0.20;;
2289;SDS011;1153;47.986;7.898;2022-12-31T07:35:36;0.50;;;0.20;;
2289;SDS011;1153;47.986;7.898;2022-12-31T07:40:59;0.50;;;0.20;;
2289;SDS011;1153;47.986;7.898;2022-12-31T07:43:43;0.40;;;0.20;;
2289;SDS011;1153;47.986;7.898;2022-12-31T07:48:48;0.50;;;0.20;;
2289;SDS011;1153;47.986;7.898;2022-12-31T07:51:14;2.53;;;0.20;;
2289;SDS011;1153;47.986;7.898;2022-12-31T07:53:39;0.50;;;0.20;;
2289;SDS011;1153;47.986;7.898;2022-12-31T07:56:05;0.97;;;0.20;;
2289;SDS011;1153;47.986;7.898;2022-12-31T08:01:15;0.90;;;0.30;;
2289;SDS011;1153;47.986;7.898;2022-12-31T08:03:52;0.40;;;0.20;;
2289;SDS011;1153;47.986;7.898;2022-12-31T08:09:08;0.50;;;0.20;;
2289;SDS011;1153;47.986;7.898;2022-12-31T08:11:40;0.40;;;0.20;;
2289;SDS011;1153;47.986;7.898;2022-12-31T08:14:07;0.40;;;0.20;;
2289;SDS011;1153;47.986;7.898;2022-12-31T08:16:34;0.40;;;0.20;;
2289;SDS011;1153;47.986;7.898;2022-12-31T08:18:59;0.60;;;0.20;;
2289;SDS011;1153;47.986;7.898;2022-12-31T08:24:11;0.50;;;0.20;;
2289;SDS011;1153;47.986;7.898;2022-12-31T08:26:44;0.80;;;0.20;;
2289;SDS011;1153;47.986;7.898;2022-12-31T08:34:46;0.50;;;0.20;;
2289;SDS011;1153;47.986;7.898;2022-12-31T08:37:17;0.40;;;0.20;;
2289;SDS011;1153;47.986;7.898;2022-12-31T08:39:55;0.40;;;0.20;;
2289;SDS011;1153;47.986;7.898;2022-12-31T08:42:59;0.50;;;0.20;;
2289;SDS011;1153;47.986;7.898;2022-12-31T08:47:46;0.50;;;0.20;;
2289;SDS011;1153;47.986;7.898;2022-12-31T08:50:14;0.40;;;0.20;;
2289;SDS011;1153;47.986;7.898;2022-12-31T08:52:40;0.40;;;0.20;;
2289;SDS011;1153;47.986;7.898;2022-12-31T08:55:05;0.50;;;0.20;;
2289;SDS011;1153;47.986;7.898;2022-12-31T08:57:33;0.40;;;0.20;;
2289;SDS011;1153;47.986;7.898;2022-12-31T09:07:37;0.50;;;0.20;;
2289;SDS011;1153;47.986;7.898;2022-12-31T09:12:44;0.40;;;0.20;;
2289;SDS011;1153;47.986;7.898;2022-12-31T09:15:15;0.50;;;0.20;;
2289;SDS011;1153;47.986;7.898;2022-12-31T09:17:44;0.40;;;0.20;;
2289;SDS011;1153;47.986;7.898;2022-12-31T09:20:14;0.50;;;0.20;;
2289;SDS011;1153;47.986;7.898;2022-12-31T09:22:40;1.10;;;0.30;;
2289;SDS011;1153;47.986;7.898;2022-12-31T09:25:05;0.40;;;0.20;;
2289;SDS011;1153;47.986;7.898;2022-12-31T09:27:37;0.40;;;0.20;;
2289;SDS011;1153;47.986;7.898;2022-12-31T09:30:10;0.40;;;0.20;;
2289;SDS011;1153;47.986;7.898;2022-12-31T09:37:48;0.40;;;0.20;;
2289;SDS011;1153;47.986;7.898;2022-12-31T09:42:45;0.50;;;0.20;;
2289;SDS011;1153;47.986;7.898;2022-12-31T09:45:21;0.40;;;0.20;;
2289;SDS011;1153;47.986;7.898;2022-12-31T09:53:12;0.40;;;0.20;;
2289;SDS011;1153;47.986;7.898;2022-12-31T09:55:57;0.40;;;0.20;;
2289;SDS011;1153;47.986;7.898;2022-12-31T10:00:52;0.40;;;0.20;;
2289;SDS011;1153;47.986;7.898;2022-12-31T10:06:11;0.40;;;0.20;;
2289;SDS011;1153;47.986;7.898;2022-12-31T10:09:02;0.40;;;0.20;;
2289;SDS011;1153;47.986;7.898;2022-12-31T10:11:52;0.40;;;0.20;;
2289;SDS011;1153;47.986;7.898;2022-12-31T10:25:05;0.60;;;0.20;;
2289;SDS011;1153;47.986;7.898;2022-12-31T10:27:45;2.40;;;0.20;;
2289;SDS011;1153;47.986;7.898;2022-12-31T11:00:52;0.90;;;0.20;;
2289;SDS011;1153;47.986;7.898;2022-12-31T11:11:07;0.40;;;0.20;;
2289;SDS011;1153;47.986;7.898;2022-12-31T11:19:01;0.40;;;0.20;;
2289;SDS011;1153;47.986;7.898;2022-12-31T11:21:54;0.40;;;0.20;;
2289;SDS011;1153;47.986;7.898;2022-12-31T11:37:50;0.30;;;0.10;;
2289;SDS011;1153;47.986;7.898;2022-12-31T11:42:49;0.50;;;0.20;;
2289;SDS011;1153;47.986;7.898;2022-12-31T11:53:13;0.40;;;0.20;;
2289;SDS011;1153;47.986;7.898;2022-12-31T11:55:53;0.50;;;0.20;;
2289;SDS011;1153;47.986;7.898;2022-12-31T11:58:21;0.50;;;0.20;;
2289;SDS011;1153;47.986;7.898;2022-12-31T12:00:56;0.30;;;0.10;;
2289;SDS011;1153;47.986;7.898;2022-12-31T12:03:23;0.40;;;0.20;;
2289;SDS011;1153;47.986;7.898;2022-12-31T12:05:48;0.40;;;0.20;;
2289;SDS011;1153;47.986;7.898;2022-12-31T12:08:13;0.40;;;0.20;;
2289;SDS011;1153;47.986;7.898;2022-12-31T12:15:36;2.03;;;0.23;;
2289;SDS011;1153;47.986;7.898;2022-12-31T12:18:08;0.40;;;0.20;;
2289;SDS011;1153;47.986;7.898;2022-12-31T12:20:37;0.40;;;0.20;;
2289;SDS011;1153;47.986;7.898;2022-12-31T12:23:19;0.40;;;0.20;;
2289;SDS011;1153;47.986;7.898;2022-12-31T12:25:48;0.60;;;0.20;;
2289;SDS011;1153;47.986;7.898;2022-12-31T12:28:17;0.40;;;0.20;;
2289;SDS011;1153;47.986;7.898;2022-12-31T12:30:43;0.47;;;0.20;;
2289;SDS011;1153;47.986;7.898;2022-12-31T12:33:18;0.40;;;0.20;;
2289;SDS011;1153;47.986;7.898;2022-12-31T12:35:43;0.43;;;0.20;;
2289;SDS011;1153;47.986;7.898;2022-12-31T12:38:19;0.40;;;0.20;;
2289;SDS011;1153;47.986;7.898;2022-12-31T12:40:56;0.50;;;0.20;;
2289;SDS011;1153;47.986;7.898;2022-12-31T12:43:23;0.50;;;0.20;;
2289;SDS011;1153;47.986;7.898;2022-12-31T12:45:48;0.70;;;0.20;;
2289;SDS011;1153;47.986;7.898;2022-12-31T12:48:18;0.50;;;0.20;;
2289;SDS011;1153;47.986;7.898;2022-12-31T12:50:44;0.50;;;0.20;;
2289;SDS011;1153;47.986;7.898;2022-12-31T12:53:26;0.50;;;0.20;;
2289;SDS011;1153;47.986;7.898;2022-12-31T12:58:59;0.50;;;0.20;;
2289;SDS011;1153;47.986;7.898;2022-12-31T13:11:44;0.50;;;0.20;;
2289;SDS011;1153;47.986;7.898;2022-12-31T13:14:16;1.10;;;0.40;;
2289;SDS011;1153;47.986;7.898;2022-12-31T13:16:47;1.03;;;0.30;;
2289;SDS011;1153;47.986;7.898;2022-12-31T13:19:21;0.50;;;0.20;;
2289;SDS011;1153;47.986;7.898;2022-12-31T13:21:57;0.50;;;0.20;;
2289;SDS011;1153;47.986;7.898;2022-12-31T13:29:32;0.60;;;0.30;;
2289;SDS011;1153;47.986;7.898;2022-12-31T13:31:59;0.60;;;0.30;;
2289;SDS011;1153;47.986;7.898;2022-12-31T13:34:29;1.67;;;0.30;;
2289;SDS011;1153;47.986;7.898;2022-12-31T13:36:56;0.70;;;0.30;;
2289;SDS011;1153;47.986;7.898;2022-12-31T13:39:24;0.70;;;0.30;;
2289;SDS011;1153;47.986;7.898;2022-12-31T13:41:57;0.60;;;0.30;;
2289;SDS011;1153;47.986;7.898;2022-12-31T13:49:44;0.70;;;0.40;;
2289;SDS011;1153;47.986;7.898;2022-12-31T13:52:20;0.60;;;0.33;;
2289;SDS011;1153;47.986;7.898;2022-12-31T13:55:00;0.70;;;0.30;;
2289;SDS011;1153;47.986;7.898;2022-12-31T14:00:01;0.80;;;0.30;;
2289;SDS011;1153;47.986;7.898;2022-12-31T14:02:42;0.70;;;0.37;;
2289;SDS011;1153;47.986;7.898;2022-12-31T14:05:12;1.00;;;0.60;;
2289;SDS011;1153;47.986;7.898;2022-12-31T14:07:45;1.27;;;0.40;;
2289;SDS011;1153;47.986;7.898;2022-12-31T14:10:12;0.70;;;0.40;;
2289;SDS011;1153;47.986;7.898;2022-12-31T14:23:19;0.83;;;0.50;;
2289;SDS011;1153;47.986;7.898;2022-12-31T14:28:20;0.80;;;0.50;;
2289;SDS011;1153;47.986;7.898;2022-12-31T14:30:48;0.80;;;0.60;;
2289;SDS011;1153;47.986;7.898;2022-12-31T14:33:33;1.70;;;1.60;;
2289;SDS011;1153;47.986;7.898;2022-12-31T14:36:05;1.20;;;0.80;;
2289;SDS011;1153;47.986;7.898;2022-12-31T14:38:46;1.13;;;1.00;;
2289;SDS011;1153;47.986;7.898;2022-12-31T14:41:22;2.27;;;1.67;;
2289;SDS011;1153;47.986;7.898;2022-12-31T14:46:34;2.70;;;2.50;;
2289;SDS011;1153;47.986;7.898;2022-12-31T14:49:12;5.53;;;2.60;;
2289;SDS011;1153;47.986;7.898;2022-12-31T14:51:40;2.13;;;1.70;;
2289;SDS011;1153;47.986;7.898;2022-12-31T14:54:21;2.47;;;2.37;;
2289;SDS011;1153;47.986;7.898;2022-12-31T14:56:48;2.10;;;2.00;;
2289;SDS011;1153;47.986;7.898;2022-12-31T14:59:28;2.20;;;2.00;;
2289;SDS011;1153;47.986;7.898;2022-12-31T15:01:54;2.27;;;2.10;;
2289;SDS011;1153;47.986;7.898;2022-12-31T15:04:29;2.70;;;2.50;;
2289;SDS011;1153;47.986;7.898;2022-12-31T15:22:43;10.53;;;5.47;;
2289;SDS011;1153;47.986;7.898;2022-12-31T15:27:53;3.10;;;1.90;;
2289;SDS011;1153;47.986;7.898;2022-12-31T15:32:57;2.67;;;1.37;;
2289;SDS011;1153;47.986;7.898;2022-12-31T15:35:25;2.03;;;1.47;;
2289;SDS011;1153;47.986;7.898;2022-12-31T15:37:58;7.73;;;2.13;;
2289;SDS011;1153;47.986;7.898;2022-12-31T15:40:24;3.10;;;1.10;;
2289;SDS011;1153;47.986;7.898;2022-12-31T15:42:51;2.23;;;2.13;;
2289;SDS011;1153;47.986;7.898;2022-12-31T15:45:21;2.60;;;2.50;;
2289;SDS011;1153;47.986;7.898;2022-12-31T15:47:51;3.40;;;1.50;;
2289;SDS011;1153;47.986;7.898;2022-12-31T15:50:19;2.10;;;2.00;;
2289;SDS011;1153;47.986;7.898;2022-12-31T15:52:46;3.70;;;1.50;;
2289;SDS011;1153;47.986;7.898;2022-12-31T15:57:44;1.30;;;0.80;;
2289;SDS011;1153;47.986;7.898;2022-12-31T16:00:20;1.17;;;0.97;;
2289;SDS011;1153;47.986;7.898;2022-12-31T16:02:49;1.80;;;1.40;;
2289;SDS011;1153;47.986;7.898;2022-12-31T16:05:23;3.10;;;1.50;;
2289;SDS011;1153;47.986;7.898;2022-12-31T16:07:52;3.37;;;2.03;;
2289;SDS011;1153;47.986;7.898;2022-12-31T16:10:20;1.87;;;1.77;;
2289;SDS011;1153;47.986;7.898;2022-12-31T16:12:46;2.50;;;1.63;;
2289;SDS011;1153;47.986;7.898;2022-12-31T16:15:17;2.90;;;2.70;;
2289;SDS011;1153;47.986;7.898;2022-12-31T16:17:43;2.63;;;2.43;;
2289;SDS011;1153;47.986;7.898;2022-12-31T16:20:19;1.97;;;1.87;;
2289;SDS011;1153;47.986;7.898;2022-12-31T16:22:49;3.03;;;2.00;;
2289;SDS011;1153;47.986;7.898;2022-12-31T16:25:18;3.93;;;1.63;;
2289;SDS011;1153;47.986;7.898;2022-12-31T16:27:43;1.73;;;1.63;;
2289;SDS011;1153;47.986;7.898;2022-12-31T16:30:18;2.90;;;1.53;;
2289;SDS011;1153;47.986;7.898;2022-12-31T16:32:45;2.97;;;1.40;;
2289;SDS011;1153;47.986;7.898;2022-12-31T16:37:45;1.80;;;1.20;;
2289;SDS011;1153;47.986;7.898;2022-12-31T16:40:17;2.00;;;1.67;;
2289;SDS011;1153;47.986;7.898;2022-12-31T16:42:44;2.13;;;2.03;;
2289;SDS011;1153;47.986;7.898;2022-12-31T16:45:28;3.53;;;1.50;;
2289;SDS011;1153;47.986;7.898;2022-12-31T16:47:54;1.57;;;1.47;;
2289;SDS011;1153;47.986;7.898;2022-12-31T16:50:20;1.93;;;1.70;;
2289;SDS011;1153;47.986;7.898;2022-12-31T16:52:46;1.60;;;1.50;;
2289;SDS011;1153;47.986;7.898;2022-12-31T16:57:41;8.80;;;8.10;;
2289;SDS011;1153;47.986;7.898;2022-12-31T17:00:13;6.90;;;6.40;;
2289;SDS011;1153;47.986;7.898;2022-12-31T17:02:39;4.90;;;4.70;;
2289;SDS011;1153;47.986;7.898;2022-12-31T17:05:16;5.03;;;4.83;;
2289;SDS011;1153;47.986;7.898;2022-12-31T17:07:41;4.80;;;3.70;;
2289;SDS011;1153;47.986;7.898;2022-12-31T17:12:33;5.27;;;4.97;;
2289;SDS011;1153;47.986;7.898;2022-12-31T17:15:02;10.80;;;6.63;;
2289;SDS011;1153;47.986;7.898;2022-12-31T17:17:28;4.37;;;4.07;;
2289;SDS011;1153;47.986;7.898;2022-12-31T17:19:57;3.00;;;2.80;;
2289;SDS011;1153;47.986;7.898;2022-12-31T17:22:40;4.77;;;4.23;;
2289;SDS011;1153;47.986;7.898;2022-12-31T17:27:42;6.60;;;5.63;;
2289;SDS011;1153;47.986;7.898;2022-12-31T17:33:25;6.43;;;5.33;;
2289;SDS011;1153;47.986;7.898;2022-12-31T17:35:53;6.77;;;5.83;;
2289;SDS011;1153;47.986;7.898;2022-12-31T17:43:32;7.93;;;7.33;;
2289;SDS011;1153;47.986;7.898;2022-12-31T17:45:57;5.90;;;5.47;;
2289;SDS011;1153;47.986;7.898;2022-12-31T17:48:23;4.43;;;4.13;;
2289;SDS011;1153;47.986;7.898;2022-12-31T17:50:50;3.73;;;3.43;;
2289;SDS011;1153;47.986;7.898;2022-12-31T17:53:15;4.67;;;4.47;;
2289;SDS011;1153;47.986;7.898;2022-12-31T17:55:41;6.30;;;5.83;;
2289;SDS011;1153;47.986;7.898;2022-12-31T17:58:07;7.20;;;6.70;;
2289;SDS011;1153;47.986;7.898;2022-12-31T18:00:36;6.17;;;5.97;;
2289;SDS011;1153;47.986;7.898;2022-12-31T18:03:01;6.03;;;5.73;;
2289;SDS011;1153;47.986;7.898;2022-12-31T18:05:26;8.57;;;7.60;;
2289;SDS011;1153;47.986;7.898;2022-12-31T18:07:52;5.87;;;5.37;;
2289;SDS011;1153;47.986;7.898;2022-12-31T18:10:19;7.27;;;6.60;;
2289;SDS011;1153;47.986;7.898;2022-12-31T18:12:44;9.10;;;8.60;;
2289;SDS011;1153;47.986;7.898;2022-12-31T18:15:17;11.33;;;10.37;;
2289;SDS011;1153;47.986;7.898;2022-12-31T18:17:43;13.87;;;12.43;;
2289;SDS011;1153;47.986;7.898;2022-12-31T18:20:08;13.33;;;12.03;;
2289;SDS011;1153;47.986;7.898;2022-12-31T18:22:33;14.67;;;11.90;;
2289;SDS011;1153;47.986;7.898;2022-12-31T18:24:59;11.37;;;10.37;;
2289;SDS011;1153;47.986;7.898;2022-12-31T18:27:24;11.43;;;10.33;;
2289;SDS011;1153;47.986;7.898;2022-12-31T18:29:49;9.20;;;8.20;;
2289;SDS011;1153;47.986;7.898;2022-12-31T18:32:19;14.23;;;12.03;;
2289;SDS011;1153;47.986;7.898;2022-12-31T18:34:45;17.10;;;14.33;;
2289;SDS011;1153;47.986;7.898;2022-12-31T18:37:11;20.23;;;15.20;;
2289;SDS011;1153;47.986;7.898;2022-12-31T18:39:36;24.63;;;18.50;;
2289;SDS011;1153;47.986;7.898;2022-12-31T18:42:01;27.37;;;20.37;;
2289;SDS011;1153;47.986;7.898;2022-12-31T18:44:26;22.80;;;18.07;;
2289;SDS011;1153;47.986;7.898;2022-12-31T18:46:52;19.80;;;16.20;;
2289;SDS011;1153;47.986;7.898;2022-12-31T18:49:17;19.67;;;14.83;;
2289;SDS011;1153;47.986;7.898;2022-12-31T18:51:42;19.17;;;15.83;;
2289;SDS011;1153;47.986;7.898;2022-12-31T18:54:08;19.93;;;14.30;;
2289;SDS011;1153;47.986;7.898;2022-12-31T18:56:34;16.83;;;14.07;;
2289;SDS011;1153;47.986;7.898;2022-12-31T18:58:59;21.37;;;17.60;;
2289;SDS011;1153;47.986;7.898;2022-12-31T19:01:28;22.57;;;18.00;;
2289;SDS011;1153;47.986;7.898;2022-12-31T19:03:57;22.40;;;18.50;;
2289;SDS011;1153;47.986;7.898;2022-12-31T19:06:23;17.33;;;14.87;;
2289;SDS011;1153;47.986;7.898;2022-12-31T19:08:48;17.30;;;13.53;;
2289;SDS011;1153;47.986;7.898;2022-12-31T19:11:14;16.33;;;11.80;;
2289;SDS011;1153;47.986;7.898;2022-12-31T19:13:39;16.20;;;12.57;;
2289;SDS011;1153;47.986;7.898;2022-12-31T19:16:05;16.40;;;12.47;;
2289;SDS011;1153;47.986;7.898;2022-12-31T19:18:31;37.63;;;21.87;;
2289;SDS011;1153;47.986;7.898;2022-12-31T19:20:56;25.30;;;17.03;;
2289;SDS011;1153;47.986;7.898;2022-12-31T19:23:22;22.17;;;16.87;;
2289;SDS011;1153;47.986;7.898;2022-12-31T19:25:47;26.60;;;16.50;;
2289;SDS011;1153;47.986;7.898;2022-12-31T19:28:14;20.63;;;14.37;;
2289;SDS011;1153;47.986;7.898;2022-12-31T19:30:39;20.53;;;13.80;;
2289;SDS011;1153;47.986;7.898;2022-12-31T19:33:05;19.43;;;14.93;;